createdAt,value
2023-02-02T00:01:27.919Z,9.60
2023-02-02T00:03:55.992Z,9.60
2023-02-02T00:06:23.912Z,9.50
2023-02-02T00:08:50.898Z,9.50
2023-02-02T00:11:18.321Z,9.50
2023-02-02T00:13:45.398Z,9.50
2023-02-02T00:16:30.380Z,9.50
2023-02-02T00:19:01.959Z,9.50
2023-02-02T00:21:28.975Z,9.50
2023-02-02T00:23:55.894Z,9.50
2023-02-02T00:26:22.819Z,9.50
2023-02-02T00:28:49.681Z,9.50
2023-02-02T00:31:16.526Z,9.50
2023-02-02T00:33:47.424Z,9.60
2023-02-02T00:36:14.627Z,9.60
2023-02-02T00:38:41.398Z,9.60
2023-02-02T00:41:08.237Z,9.50
2023-02-02T00:43:35.315Z,9.60
2023-02-02T00:46:02.242Z,9.60
2023-02-02T00:48:29.156Z,9.60
2023-02-02T00:50:56.004Z,9.60
2023-02-02T00:53:22.859Z,9.60
2023-02-02T00:55:49.755Z,9.60
2023-02-02T00:58:16.893Z,9.60
2023-02-02T01:00:43.792Z,9.60
2023-02-02T01:03:13.498Z,9.60
2023-02-02T01:05:40.511Z,9.60
2023-02-02T01:08:07.521Z,9.60
2023-02-02T01:10:34.753Z,9.60
2023-02-02T01:13:01.703Z,9.60
2023-02-02T01:15:30.548Z,9.60
2023-02-02T01:17:57.993Z,9.60
2023-02-02T01:20:25.789Z,9.60
2023-02-02T01:22:52.799Z,9.60
2023-02-02T01:25:21.987Z,9.60
2023-02-02T01:27:49.190Z,9.60
2023-02-02T01:30:16.247Z,9.60
2023-02-02T01:32:42.979Z,9.60
2023-02-02T01:35:10.378Z,9.60
2023-02-02T01:37:37.216Z,9.60
2023-02-02T01:40:04.664Z,9.60
2023-02-02T01:42:31.456Z,9.70
2023-02-02T01:45:28.569Z,9.70
2023-02-02T01:48:00.085Z,9.60
2023-02-02T01:50:37.560Z,9.60
2023-02-02T01:53:04.648Z,9.60
2023-02-02T01:55:32.054Z,9.60
2023-02-02T01:58:10.414Z,9.60
2023-02-02T02:00:39.164Z,9.50
2023-02-02T02:03:12.290Z,9.50
2023-02-02T02:05:43.390Z,9.40
2023-02-02T02:08:19.520Z,9.30
2023-02-02T02:10:46.463Z,9.30
2023-02-02T02:13:13.308Z,9.20
2023-02-02T02:16:19.323Z,9.20
2023-02-02T02:19:10.301Z,9.10
2023-02-02T02:22:03.755Z,9.10
2023-02-02T02:25:18.975Z,9.00
2023-02-02T02:28:01.253Z,9.00
2023-02-02T02:31:02.543Z,9.00
2023-02-02T02:33:47.718Z,9.10
2023-02-02T02:36:19.405Z,9.10
2023-02-02T02:39:02.299Z,9.10
2023-02-02T02:41:33.751Z,9.10
2023-02-02T02:44:10.708Z,9.10
2023-02-02T02:46:38.146Z,9.20
2023-02-02T02:49:07.039Z,9.20
2023-02-02T02:51:46.168Z,9.20
2023-02-02T02:54:28.800Z,9.20
2023-02-02T02:57:10.752Z,9.20
2023-02-02T03:00:01.994Z,9.20
2023-02-02T03:02:40.954Z,9.20
2023-02-02T03:05:19.521Z,9.20
2023-02-02T03:07:52.132Z,9.20
2023-02-02T03:10:19.821Z,9.20
2023-02-02T03:12:47.234Z,9.20
2023-02-02T03:15:14.453Z,9.10
2023-02-02T03:17:42.030Z,9.10
2023-02-02T03:20:10.012Z,9.10
2023-02-02T03:22:36.922Z,9.00
2023-02-02T03:25:04.289Z,8.90
2023-02-02T03:27:31.157Z,8.80
2023-02-02T03:29:58.119Z,8.80
2023-02-02T03:32:24.907Z,8.70
2023-02-02T03:34:51.630Z,8.60
2023-02-02T03:37:18.409Z,8.50
2023-02-02T03:39:45.276Z,8.40
2023-02-02T03:42:12.034Z,8.40
2023-02-02T03:44:38.854Z,8.40
2023-02-02T03:47:05.682Z,8.30
2023-02-02T03:49:32.423Z,8.30
2023-02-02T03:51:59.177Z,8.20
2023-02-02T03:54:25.980Z,8.20
2023-02-02T03:56:52.740Z,8.10
2023-02-02T03:59:19.505Z,8.10
2023-02-02T04:01:46.338Z,8.10
2023-02-02T04:04:13.174Z,8.00
2023-02-02T04:06:39.909Z,8.00
2023-02-02T04:09:06.755Z,8.00
2023-02-02T04:11:33.563Z,8.00
2023-02-02T04:14:00.340Z,7.90
2023-02-02T04:16:27.267Z,7.80
2023-02-02T04:18:54.087Z,7.90
2023-02-02T04:21:20.842Z,7.80
2023-02-02T04:23:47.629Z,7.80
2023-02-02T04:26:14.487Z,7.80
2023-02-02T04:28:41.265Z,7.80
2023-02-02T04:31:08.152Z,7.80
2023-02-02T04:33:35.851Z,7.80
2023-02-02T04:36:02.824Z,7.80
2023-02-02T04:38:29.634Z,7.80
2023-02-02T04:40:56.426Z,7.80
2023-02-02T04:43:23.313Z,7.80
2023-02-02T04:45:56.061Z,7.80
2023-02-02T04:48:22.942Z,7.70
2023-02-02T04:50:49.673Z,7.70
2023-02-02T04:53:16.522Z,7.70
2023-02-02T04:55:43.257Z,7.70
2023-02-02T04:58:10.180Z,7.70
2023-02-02T05:00:37.008Z,7.60
2023-02-02T05:03:03.844Z,7.60
2023-02-02T05:05:30.718Z,7.60
2023-02-02T05:07:57.567Z,7.60
2023-02-02T05:10:24.359Z,7.50
2023-02-02T05:12:55.902Z,7.50
2023-02-02T05:15:23.164Z,7.50
2023-02-02T05:17:50.152Z,7.40
2023-02-02T05:20:17.059Z,7.50
2023-02-02T05:22:43.902Z,7.50
2023-02-02T05:25:10.693Z,7.40
2023-02-02T05:27:37.618Z,7.40
2023-02-02T05:30:04.875Z,7.40
2023-02-02T05:32:31.646Z,7.40
2023-02-02T05:34:58.394Z,7.40
2023-02-02T05:37:25.205Z,7.30
2023-02-02T05:39:53.697Z,7.40
2023-02-02T05:42:20.512Z,7.30
2023-02-02T05:44:47.270Z,7.30
2023-02-02T05:47:14.090Z,7.30
2023-02-02T05:49:40.979Z,7.20
2023-02-02T05:52:07.767Z,7.20
2023-02-02T05:54:34.676Z,7.20
2023-02-02T05:57:03.019Z,7.20
2023-02-02T05:59:29.864Z,7.20
2023-02-02T06:01:56.738Z,7.20
2023-02-02T06:04:23.503Z,7.20
2023-02-02T06:06:50.291Z,7.20
2023-02-02T06:09:17.089Z,7.20
2023-02-02T06:11:44.558Z,7.20
2023-02-02T06:14:11.336Z,7.20
2023-02-02T06:16:38.411Z,7.30
2023-02-02T06:19:05.312Z,7.30
2023-02-02T06:21:32.274Z,7.30
2023-02-02T06:23:59.421Z,7.30
2023-02-02T06:26:26.910Z,7.30
2023-02-02T06:28:54.217Z,7.30
2023-02-02T06:31:21.514Z,7.30
2023-02-02T06:33:49.070Z,7.30
2023-02-02T06:36:15.900Z,7.30
2023-02-02T06:38:42.690Z,7.30
2023-02-02T06:41:09.473Z,7.30
2023-02-02T06:43:36.277Z,7.30
2023-02-02T06:46:03.199Z,7.40
2023-02-02T06:48:29.982Z,7.40
2023-02-02T06:50:59.744Z,7.40
2023-02-02T06:53:27.039Z,7.40
2023-02-02T06:55:54.963Z,7.40
2023-02-02T06:58:21.798Z,7.40
2023-02-02T07:00:48.668Z,7.40
2023-02-02T07:03:16.222Z,7.40
2023-02-02T07:05:43.074Z,7.40
2023-02-02T07:08:09.853Z,7.40
2023-02-02T07:11:14.601Z,7.30
2023-02-02T07:13:25.240Z,7.40
2023-02-02T07:15:52.062Z,7.30
2023-02-02T07:18:18.989Z,7.30
2023-02-02T07:20:45.776Z,7.30
2023-02-02T07:23:12.593Z,7.30
2023-02-02T07:25:39.437Z,7.30
2023-02-02T07:28:06.304Z,7.30
2023-02-02T07:30:33.370Z,7.30
2023-02-02T07:33:00.551Z,7.30
2023-02-02T07:35:27.424Z,7.30
2023-02-02T07:37:54.716Z,7.30
2023-02-02T07:40:21.791Z,7.40
2023-02-02T07:42:48.726Z,7.40
2023-02-02T07:45:26.686Z,7.40
2023-02-02T07:47:58.425Z,7.50
2023-02-02T07:50:25.383Z,7.50
2023-02-02T07:52:52.624Z,7.60
2023-02-02T07:55:19.623Z,7.60
2023-02-02T07:57:46.390Z,7.70
2023-02-02T08:00:13.820Z,7.90
2023-02-02T08:02:40.663Z,8.00
2023-02-02T08:05:07.828Z,8.00
2023-02-02T08:07:35.123Z,8.00
2023-02-02T08:10:02.040Z,8.00
2023-02-02T11:37:01.962Z,12.60
2023-02-02T11:39:28.877Z,12.90
2023-02-02T11:42:18.555Z,13.20
2023-02-02T11:44:48.319Z,13.30
2023-02-02T11:47:30.428Z,13.30
2023-02-02T11:49:58.821Z,13.10
2023-02-02T11:52:27.448Z,12.90
2023-02-02T11:54:59.881Z,12.70
2023-02-02T11:57:27.380Z,12.60
2023-02-02T12:00:13.244Z,12.50
2023-02-02T12:02:45.842Z,12.40
2023-02-02T12:05:15.328Z,12.40
2023-02-02T12:07:42.951Z,12.60
2023-02-02T12:10:35.031Z,12.60
2023-02-02T12:13:24.152Z,12.60
2023-02-02T12:16:15.251Z,12.50
2023-02-02T12:19:19.080Z,12.50
2023-02-02T12:21:54.032Z,12.40
2023-02-02T12:24:33.660Z,12.30
2023-02-02T12:27:38.308Z,12.20
2023-02-02T12:30:43.200Z,12.20
2023-02-02T12:33:16.066Z,12.20
2023-02-02T12:36:07.549Z,12.20
2023-02-02T12:39:04.834Z,12.20
2023-02-02T12:42:12.190Z,12.20
2023-02-02T12:44:46.103Z,12.20
2023-02-02T12:47:22.871Z,12.30
2023-02-02T12:50:15.818Z,12.40
2023-02-02T12:53:17.077Z,12.40
2023-02-02T12:55:47.973Z,12.40
2023-02-02T12:58:26.897Z,12.50
2023-02-02T13:01:05.837Z,12.50
2023-02-02T13:03:50.827Z,12.40
2023-02-02T13:06:59.325Z,12.30
2023-02-02T13:09:33.143Z,12.30
2023-02-02T13:12:07.304Z,12.30
2023-02-02T13:14:38.720Z,12.30
2023-02-02T13:17:24.629Z,12.20
2023-02-02T13:19:53.904Z,12.20
2023-02-02T13:22:47.545Z,12.10
2023-02-02T13:25:26.401Z,12.10
2023-02-02T13:27:53.456Z,12.10
2023-02-02T13:30:32.809Z,12.00
2023-02-02T13:33:21.328Z,12.00
2023-02-02T13:36:08.338Z,11.90
2023-02-02T13:38:39.127Z,11.90
2023-02-02T13:41:07.526Z,11.80
2023-02-02T13:43:47.257Z,11.80
2023-02-02T13:46:19.927Z,11.80
2023-02-02T13:49:00.468Z,11.80
2023-02-02T13:51:36.593Z,11.70
2023-02-02T13:54:27.601Z,11.70
2023-02-02T13:57:10.837Z,11.70
2023-02-02T13:59:44.335Z,11.70
2023-02-02T14:02:44.274Z,11.70
2023-02-02T14:05:50.229Z,11.70
2023-02-02T14:08:22.904Z,11.60
2023-02-02T14:10:52.694Z,11.60
2023-02-02T14:13:39.518Z,11.60
2023-02-02T14:16:07.348Z,11.70
2023-02-02T14:18:54.677Z,11.70
2023-02-02T14:21:33.872Z,11.70
2023-02-02T14:24:03.031Z,11.80
2023-02-02T14:26:44.686Z,11.80
2023-02-02T14:29:57.411Z,11.80
2023-02-02T14:32:34.644Z,11.90
2023-02-02T14:35:10.743Z,11.80
2023-02-02T14:37:47.575Z,11.80
2023-02-02T14:40:26.407Z,11.90
2023-02-02T14:43:23.635Z,11.90
2023-02-02T14:46:13.325Z,11.90
2023-02-02T14:49:05.420Z,11.90
2023-02-02T14:51:33.085Z,12.00
2023-02-02T14:54:01.848Z,12.10
2023-02-02T14:56:51.856Z,12.10
2023-02-02T14:59:33.420Z,12.20
2023-02-02T15:02:19.017Z,12.20
2023-02-02T15:04:48.949Z,12.20
2023-02-02T15:07:26.928Z,12.20
2023-02-02T15:09:58.116Z,12.20
2023-02-02T15:12:47.214Z,12.20
2023-02-02T15:15:23.356Z,12.10
2023-02-02T15:18:05.255Z,12.10
2023-02-02T15:20:40.187Z,12.10
2023-02-02T15:23:24.974Z,12.10
2023-02-02T15:25:58.123Z,12.10
2023-02-02T15:28:28.694Z,12.10
2023-02-02T15:30:59.750Z,12.10
2023-02-02T15:33:36.999Z,12.10
2023-02-02T15:36:05.241Z,12.10
2023-02-02T15:38:37.951Z,12.10
2023-02-02T15:41:20.827Z,12.10
2023-02-02T15:43:47.642Z,12.10
2023-02-02T15:46:23.810Z,12.10
2023-02-02T15:49:32.943Z,12.10
2023-02-02T15:52:03.781Z,12.10
2023-02-02T15:54:31.915Z,12.10
2023-02-02T15:57:02.193Z,12.00
2023-02-02T15:59:39.932Z,12.00
2023-02-02T16:02:06.704Z,12.00
2023-02-02T16:04:42.459Z,12.00
2023-02-02T16:07:14.566Z,12.00
2023-02-02T16:09:41.991Z,12.00
2023-02-02T16:12:22.105Z,12.00
2023-02-02T16:14:50.760Z,12.00
2023-02-02T16:17:29.206Z,11.90
2023-02-02T16:20:09.651Z,11.90
2023-02-02T16:22:37.066Z,11.90
2023-02-02T16:25:07.685Z,11.90
2023-02-02T16:27:34.444Z,11.90
2023-02-02T16:30:04.776Z,11.90
2023-02-02T16:32:33.410Z,11.90
2023-02-02T16:35:01.742Z,11.90
2023-02-02T16:37:29.852Z,11.80
2023-02-02T16:39:57.517Z,11.80
2023-02-02T16:42:26.729Z,11.90
2023-02-02T16:44:54.564Z,11.80
2023-02-02T16:47:28.164Z,11.80
2023-02-02T16:50:15.737Z,11.80
2023-02-02T16:53:03.837Z,11.80
2023-02-02T16:55:47.914Z,11.80
2023-02-02T16:58:19.136Z,11.80
2023-02-02T17:01:14.893Z,11.80
2023-02-02T17:03:53.343Z,11.80
2023-02-02T17:06:45.857Z,11.80
2023-02-02T17:09:24.570Z,11.80
2023-02-02T17:12:02.700Z,11.80
2023-02-02T17:14:34.716Z,11.80
2023-02-02T17:17:07.727Z,11.80
2023-02-02T17:19:34.925Z,11.80
2023-02-02T17:22:02.701Z,11.80
2023-02-02T17:24:29.493Z,11.80
2023-02-02T17:26:56.333Z,11.70
2023-02-02T17:29:23.211Z,11.70
2023-02-02T17:31:51.910Z,11.70
2023-02-02T17:34:18.840Z,11.70
2023-02-02T17:36:45.672Z,11.70
2023-02-02T17:39:13.568Z,11.70
2023-02-02T17:41:40.529Z,11.70
2023-02-02T17:44:09.244Z,11.70
2023-02-02T17:46:38.319Z,11.70
2023-02-02T17:49:06.692Z,11.70
2023-02-02T17:51:41.014Z,11.70
2023-02-02T17:54:12.547Z,11.60
2023-02-02T17:56:40.123Z,11.70
2023-02-02T17:59:07.105Z,11.60
2023-02-02T18:01:38.255Z,11.60
2023-02-02T18:04:06.375Z,11.60
2023-02-02T18:06:33.252Z,11.60
2023-02-02T18:09:00.158Z,11.60
2023-02-02T18:11:27.184Z,11.60
2023-02-02T18:13:53.965Z,11.60
2023-02-02T18:16:21.222Z,11.70
2023-02-02T18:18:48.171Z,11.80
2023-02-02T18:21:15.043Z,11.90
2023-02-02T18:23:41.919Z,11.80
2023-02-02T18:26:10.905Z,11.90
2023-02-02T18:28:38.139Z,11.80
2023-02-02T18:31:10.084Z,11.80
2023-02-02T18:33:40.005Z,11.80
2023-02-02T18:36:08.847Z,11.70
2023-02-02T18:38:35.643Z,11.70
2023-02-02T18:41:03.610Z,11.70
2023-02-02T18:43:30.583Z,11.70
2023-02-02T18:46:02.422Z,11.60
2023-02-02T18:48:29.380Z,11.60
2023-02-02T18:50:56.132Z,11.60
2023-02-02T18:53:22.949Z,11.50
2023-02-02T18:55:49.701Z,11.50
2023-02-02T18:58:17.014Z,11.50
2023-02-02T19:00:44.019Z,11.50
2023-02-02T19:03:10.795Z,11.50
2023-02-02T19:05:56.449Z,11.50
2023-02-02T19:08:23.238Z,11.40
2023-02-02T19:10:52.654Z,11.50
2023-02-02T19:13:20.276Z,11.40
2023-02-02T19:15:48.112Z,11.40
2023-02-02T19:18:19.699Z,11.40
2023-02-02T19:20:46.691Z,11.50
2023-02-02T19:23:14.941Z,11.40
2023-02-02T19:25:42.678Z,11.40
2023-02-02T19:28:24.246Z,11.40
2023-02-02T19:30:55.271Z,11.40
2023-02-02T19:33:22.216Z,11.40
2023-02-02T19:35:49.582Z,11.40
2023-02-02T19:38:17.570Z,11.30
2023-02-02T19:40:45.046Z,11.30
2023-02-02T19:43:25.903Z,11.30
2023-02-02T19:45:53.752Z,11.30
2023-02-02T19:48:27.091Z,11.30
2023-02-02T19:50:57.334Z,11.30
2023-02-02T19:53:25.794Z,11.30
2023-02-02T19:55:52.623Z,11.30
2023-02-02T19:58:23.624Z,11.40
2023-02-02T20:00:51.213Z,11.40
2023-02-02T20:03:28.301Z,11.40
2023-02-02T20:05:56.399Z,11.40
2023-02-02T20:08:32.102Z,11.40
2023-02-02T20:11:00.591Z,11.40
2023-02-02T20:13:42.491Z,11.40
2023-02-02T20:16:15.646Z,11.40
2023-02-02T20:18:44.355Z,11.50
2023-02-02T20:21:29.020Z,11.50
2023-02-02T20:23:56.461Z,11.50
2023-02-02T20:26:27.687Z,11.50
2023-02-02T20:28:59.073Z,11.40
2023-02-02T20:31:37.246Z,11.50
2023-02-02T20:34:27.675Z,11.50
2023-02-02T20:37:13.277Z,11.60
2023-02-02T20:39:41.279Z,11.50
2023-02-02T20:42:08.247Z,11.60
2023-02-02T20:44:35.341Z,11.60
2023-02-02T20:47:02.501Z,11.60
2023-02-02T20:49:31.614Z,11.50
2023-02-02T20:51:59.721Z,11.60
2023-02-02T20:54:26.705Z,11.50
2023-02-02T20:56:54.307Z,11.50
2023-02-02T20:59:21.108Z,11.50
2023-02-02T21:01:49.784Z,11.50
2023-02-02T21:04:17.350Z,11.50
2023-02-02T21:06:44.125Z,11.40
2023-02-02T21:09:11.591Z,11.40
2023-02-02T21:11:38.760Z,11.40
2023-02-02T21:14:05.602Z,11.30
2023-02-02T21:16:32.515Z,11.30
2023-02-02T21:19:00.421Z,11.30
2023-02-02T21:21:27.315Z,11.20
2023-02-02T21:23:56.158Z,11.20
2023-02-02T21:26:23.737Z,11.10
2023-02-02T21:28:50.456Z,11.00
2023-02-02T21:31:17.491Z,11.00
2023-02-02T21:33:44.994Z,11.00
2023-02-02T21:36:35.060Z,11.00
2023-02-02T21:39:27.198Z,11.00
2023-02-02T21:42:09.418Z,11.00
2023-02-02T21:44:44.099Z,11.00
2023-02-02T21:47:26.566Z,11.00
2023-02-02T21:49:56.799Z,11.00
2023-02-02T21:52:23.653Z,11.00
2023-02-02T21:54:50.481Z,10.90
2023-02-02T21:57:19.213Z,10.90
2023-02-02T21:59:53.948Z,10.90
2023-02-02T22:02:28.965Z,10.80
2023-02-02T22:04:57.424Z,10.70
2023-02-02T22:07:25.100Z,10.70
2023-02-02T22:09:52.149Z,10.70
2023-02-02T22:12:23.552Z,10.70
2023-02-02T22:14:52.120Z,10.70
2023-02-02T22:17:21.919Z,10.70
2023-02-02T22:19:57.230Z,10.70
2023-02-02T22:22:25.902Z,10.70
2023-02-02T22:24:59.740Z,10.70
2023-02-02T22:27:34.241Z,10.70
2023-02-02T22:30:03.221Z,10.70
2023-02-02T22:32:29.970Z,10.70
2023-02-02T22:34:56.876Z,10.70
2023-02-02T22:37:23.694Z,10.70
2023-02-02T22:39:50.472Z,10.70
2023-02-02T22:42:18.332Z,10.60
2023-02-02T22:44:45.262Z,10.60
2023-02-02T22:47:14.688Z,10.50
2023-02-02T22:49:41.476Z,10.40
2023-02-02T22:52:08.286Z,10.40
2023-02-02T22:54:35.146Z,10.40
2023-02-02T22:57:01.972Z,10.40
2023-02-02T22:59:28.793Z,10.50
2023-02-02T23:01:55.625Z,10.70
2023-02-02T23:04:22.552Z,10.70
2023-02-02T23:06:49.484Z,10.70
2023-02-02T23:09:16.231Z,10.70
2023-02-02T23:11:43.001Z,10.60
2023-02-02T23:14:09.861Z,10.40
2023-02-02T23:16:36.637Z,10.40
2023-02-02T23:19:03.634Z,10.30
2023-02-02T23:21:30.542Z,10.10
2023-02-02T23:23:57.482Z,10.10
2023-02-02T23:26:24.388Z,10.00
2023-02-02T23:28:51.174Z,9.90
2023-02-02T23:31:18.802Z,9.90
2023-02-02T23:33:45.686Z,9.90
2023-02-02T23:36:12.438Z,9.80
2023-02-02T23:38:39.193Z,9.80
2023-02-02T23:41:06.161Z,9.80
2023-02-02T23:43:33.134Z,9.70
2023-02-02T23:46:00.393Z,9.70
2023-02-02T23:48:27.240Z,9.70
2023-02-02T23:50:53.985Z,9.70
2023-02-02T23:53:20.902Z,9.70
2023-02-02T23:55:47.777Z,9.70
2023-02-02T23:58:14.575Z,9.70
